Time;durP1;ratioP1;P1;durP2;ratioP2;P2;SDS_P1;SDS_P2;PMS_P1;PMS_P2;Temp;Humidity;BMP_temperature;BMP_pressure;BME280_temperature;BME280_humidity;BME280_pressure;Samples;Min_cycle;Max_cycle;Signal;HPM_P1;HPM_P2
2023/07/13 00:00:23;;;;;;;5.90;1.30;;;;;;;18.57;70.33;101423.84;4974566;28;101428;-27
2023/07/13 00:02:49;;;;;;;6.38;1.23;;;;;;;18.59;71.42;101425.44;4976137;28;98233;-27
2023/07/13 00:05:14;;;;;;;5.20;1.13;;;;;;;18.67;70.20;101424.75;4976382;28;96615;-28
2023/07/13 00:07:40;;;;;;;5.65;1.13;;;;;;;18.70;70.28;101427.22;4975389;28;96813;-28
2023/07/13 00:10:06;;;;;;;4.15;1.48;;;;;;;18.68;71.35;101419.13;4975981;28;97865;-27
2023/07/13 00:12:37;;;;;;;6.47;1.05;;;;;;;18.64;72.80;101417.66;4974252;28;101135;-27
2023/07/13 00:15:07;;;;;;;3.85;1.35;;;;;;;18.64;72.13;101419.56;4974213;28;96625;-27
2023/07/13 00:17:32;;;;;;;4.95;1.08;;;;;;;18.62;71.88;101421.56;4974813;28;96837;-27
2023/07/13 00:19:58;;;;;;;6.80;1.08;;;;;;;18.61;71.32;101409.69;4975711;28;97602;-27
2023/07/13 00:22:25;;;;;;;4.72;1.48;;;;;;;18.62;71.16;101416.94;4975558;28;99494;-27
2023/07/13 00:24:51;;;;;;;7.15;0.93;;;;;;;18.65;72.16;101418.53;4974442;28;96677;-27
2023/07/13 00:27:17;;;;;;;7.63;1.05;;;;;;;18.58;73.77;101429.16;4975971;28;96752;-27
2023/07/13 00:29:43;;;;;;;4.53;1.08;;;;;;;18.45;73.12;101417.53;4975332;28;98909;-27
2023/07/13 00:32:09;;;;;;;4.55;0.98;;;;;;;18.48;72.80;101422.75;4976004;28;97998;-27
2023/07/13 00:34:35;;;;;;;3.75;0.75;;;;;;;18.48;73.39;101430.97;4974488;28;96571;-27
2023/07/13 00:37:01;;;;;;;5.75;1.48;;;;;;;18.52;72.91;101435.19;4974227;28;96925;-27
2023/07/13 00:39:27;;;;;;;5.57;1.25;;;;;;;18.50;72.64;101415.25;4975110;28;97913;-28
2023/07/13 00:41:52;;;;;;;3.75;0.98;;;;;;;18.59;73.53;101430.03;4975283;28;99178;-28
2023/07/13 00:44:20;;;;;;;5.10;1.27;;;;;;;18.52;73.53;101406.88;4975493;28;96523;-27
2023/07/13 00:46:46;;;;;;;5.85;1.15;;;;;;;18.54;72.90;101427.69;4974305;28;96838;-27
2023/07/13 00:49:14;;;;;;;1.25;0.75;;;;;;;18.53;73.18;101422.34;4974804;28;97617;-27
2023/07/13 00:51:53;;;;;;;6.80;0.90;;;;;;;18.56;73.82;101430.31;4975115;28;97875;-27
2023/07/13 00:54:28;;;;;;;4.10;1.90;;;;;;;18.51;72.88;101422.47;4975672;28;96492;-27
2023/07/13 00:56:57;;;;;;;3.70;0.95;;;;;;;18.50;73.15;101431.72;4974362;28;96744;-27
2023/07/13 00:59:22;;;;;;;3.17;1.00;;;;;;;18.51;72.80;101430.69;4973802;28;100829;-28
2023/07/13 01:01:48;;;;;;;5.65;0.93;;;;;;;18.51;73.39;101438.06;4974901;28;97859;-28
2023/07/13 01:04:14;;;;;;;11.18;1.50;;;;;;;18.48;73.25;101430.97;4973584;28;96779;-27
2023/07/13 01:06:41;;;;;;;2.55;1.10;;;;;;;18.45;73.75;101432.09;4974032;28;96954;-27
2023/07/13 01:09:07;;;;;;;7.18;1.27;;;;;;;18.39;73.35;101434.50;4974741;28;99772;-27
2023/07/13 01:11:34;;;;;;;4.60;0.93;;;;;;;18.38;74.14;101432.78;4973586;28;98897;-27
2023/07/13 01:14:01;;;;;;;5.68;1.15;;;;;;;18.33;73.41;101429.50;4973949;28;96604;-27
2023/07/13 01:16:32;;;;;;;2.80;0.93;;;;;;;18.31;74.20;101437.03;4973739;28;96978;-28
2023/07/13 01:18:58;;;;;;;5.75;1.05;;;;;;;18.24;74.06;101443.03;4974438;28;99301;-27
2023/07/13 01:21:24;;;;;;;5.18;0.68;;;;;;;18.25;74.43;101439.28;4973862;28;100889;-27
2023/07/13 01:23:50;;;;;;;4.97;1.17;;;;;;;18.24;74.03;101445.75;4973816;28;96530;-27
2023/07/13 01:26:16;;;;;;;3.83;0.60;;;;;;;18.23;74.15;101455.00;4975201;28;96756;-27
2023/07/13 01:28:41;;;;;;;8.93;1.02;;;;;;;18.16;75.12;101440.06;4972810;28;99570;-27
2023/07/13 01:31:08;;;;;;;4.78;1.15;;;;;;;18.11;75.68;101444.19;4974699;28;97813;-27
2023/07/13 01:33:34;;;;;;;4.15;1.10;;;;;;;18.07;75.80;101460.03;4975034;28;96551;-29
2023/07/13 01:35:59;;;;;;;5.47;1.25;;;;;;;17.92;75.54;101440.22;4974971;28;99921;-27
2023/07/13 01:38:26;;;;;;;5.65;0.88;;;;;;;18.04;75.59;101455.69;4974710;28;97800;-27
2023/07/13 01:40:52;;;;;;;8.40;1.05;;;;;;;18.02;76.46;101459.56;4973302;28;100858;-28
2023/07/13 01:43:19;;;;;;;4.80;1.02;;;;;;;17.96;75.65;101444.47;4973412;28;96605;-27
2023/07/13 01:45:44;;;;;;;5.05;1.10;;;;;;;17.90;75.35;101453.22;4973727;28;96877;-27
2023/07/13 01:48:11;;;;;;;6.05;1.13;;;;;;;17.94;74.31;101451.06;4973977;28;99170;-28
2023/07/13 01:50:37;;;;;;;4.05;0.80;;;;;;;17.95;74.21;101461.94;4973165;28;100969;-28
2023/07/13 01:53:02;;;;;;;3.42;0.70;;;;;;;17.94;73.76;101457.41;4972989;28;96494;-27
2023/07/13 01:55:29;;;;;;;3.17;0.82;;;;;;;17.89;73.16;101464.28;4973359;28;96821;-27
2023/07/13 01:57:54;;;;;;;2.92;0.55;;;;;;;17.94;73.03;101467.53;4973184;28;100657;-27
2023/07/13 02:00:20;;;;;;;1.85;0.57;;;;;;;17.88;72.66;101463.44;4974525;28;97832;-27
2023/07/13 02:02:45;;;;;;;1.90;0.50;;;;;;;17.83;72.86;101460.22;4974698;28;96616;-29
2023/07/13 02:05:11;;;;;;;1.77;0.93;;;;;;;17.85;72.52;101462.81;4974853;28;96764;-28
2023/07/13 02:07:37;;;;;;;2.28;0.47;;;;;;;17.85;72.98;101458.19;4972856;28;100959;-28
2023/07/13 02:10:03;;;;;;;3.15;0.52;;;;;;;17.89;72.28;101469.78;4973096;28;100868;-27
2023/07/13 02:12:29;;;;;;;3.13;0.65;;;;;;;17.84;72.76;101470.16;4973130;28;96672;-27
2023/07/13 02:14:54;;;;;;;2.97;0.93;;;;;;;17.85;73.23;101465.53;4974413;28;96803;-27
2023/07/13 02:17:20;;;;;;;2.67;0.80;;;;;;;17.81;73.36;101463.06;4973735;28;98399;-28
2023/07/13 02:19:45;;;;;;;6.13;0.80;;;;;;;17.85;72.75;101460.06;4974204;28;97246;-27
2023/07/13 02:22:11;;;;;;;3.00;0.60;;;;;;;17.81;73.46;101456.72;4974459;28;96608;-27
2023/07/13 02:24:38;;;;;;;1.55;0.52;;;;;;;17.82;72.69;101448.34;4974630;28;96760;-27
2023/07/13 02:27:04;;;;;;;2.40;0.80;;;;;;;17.83;73.96;101465.69;4974048;28;98328;-27
2023/07/13 02:29:29;;;;;;;3.40;0.63;;;;;;;17.80;74.07;101464.06;4972518;28;101061;-27
2023/07/13 02:31:55;;;;;;;2.35;0.73;;;;;;;17.84;73.61;101461.94;4977257;28;96593;-27
2023/07/13 02:34:20;;;;;;;3.03;0.85;;;;;;;17.78;73.37;101459.66;4978070;28;96781;-27
2023/07/13 02:36:46;;;;;;;4.75;0.80;;;;;;;17.77;75.05;101468.88;4977208;28;97988;-27
2023/07/13 02:39:12;;;;;;;2.67;0.60;;;;;;;17.78;74.99;101476.09;4977406;28;97863;-28
2023/07/13 02:41:38;;;;;;;4.35;1.20;;;;;;;17.73;75.25;101470.13;4975610;28;96789;-27
2023/07/13 02:44:03;;;;;;;3.22;0.65;;;;;;;17.68;74.77;101461.41;4977903;28;96773;-27
2023/07/13 02:46:34;;;;;;;3.42;1.17;;;;;;;17.63;76.09;101459.06;4977099;28;98940;-27
2023/07/13 02:49:00;;;;;;;3.67;0.77;;;;;;;17.66;75.53;101469.75;4975253;28;101279;-28
2023/07/13 02:51:26;;;;;;;3.45;1.02;;;;;;;17.60;74.89;101457.44;4977372;28;96637;-27
2023/07/13 02:53:52;;;;;;;5.28;1.75;;;;;;;17.60;75.31;101462.91;4976040;28;96899;-28
2023/07/13 02:56:21;;;;;;;6.10;1.25;;;;;;;17.62;75.30;101471.03;4977312;28;97314;-28
2023/07/13 02:58:47;;;;;;;4.70;1.05;;;;;;;17.55;75.97;101461.56;4976011;28;101130;-27
2023/07/13 03:01:12;;;;;;;4.57;1.15;;;;;;;17.54;77.30;101457.94;4977760;28;96494;-27
2023/07/13 03:03:38;;;;;;;5.07;1.25;;;;;;;17.53;77.03;101469.88;4977766;28;96732;-28
2023/07/13 03:06:05;;;;;;;8.77;0.65;;;;;;;17.48;77.71;101465.78;4976565;28;97115;-27
2023/07/13 03:08:31;;;;;;;3.35;0.85;;;;;;;17.45;78.55;101476.97;4975471;28;101008;-27
2023/07/13 03:11:02;;;;;;;4.45;1.05;;;;;;;17.39;78.87;101467.38;4975396;28;96712;-28
2023/07/13 03:13:28;;;;;;;9.10;2.17;;;;;;;17.44;78.00;101476.09;4977065;28;96850;-27
2023/07/13 03:15:54;;;;;;;6.75;1.25;;;;;;;17.47;78.60;101481.34;4976775;28;97982;-27
2023/07/13 03:18:19;;;;;;;5.05;1.33;;;;;;;17.43;77.61;101457.06;4976930;28;97787;-27
2023/07/13 03:20:44;;;;;;;11.05;1.27;;;;;;;17.37;79.31;101469.38;4977132;28;96820;-27
2023/07/13 03:23:10;;;;;;;3.70;1.08;;;;;;;17.45;78.87;101477.88;4977412;28;96833;-27
2023/07/13 03:25:35;;;;;;;5.43;1.38;;;;;;;17.51;77.54;101474.63;4976161;28;99406;-27
2023/07/13 03:28:01;;;;;;;7.18;1.30;;;;;;;17.40;78.41;101466.41;4975337;28;97883;-27
2023/07/13 03:30:26;;;;;;;3.10;0.90;;;;;;;17.43;79.95;101474.38;4976489;28;97325;-27
2023/07/13 03:32:51;;;;;;;2.47;1.05;;;;;;;17.46;79.58;101474.13;4976845;28;96806;-27
2023/07/13 03:35:17;;;;;;;4.68;1.27;;;;;;;17.46;79.06;101465.91;4976319;28;97300;-28
2023/07/13 03:37:42;;;;;;;2.97;1.05;;;;;;;17.48;79.04;101471.25;4976204;28;99794;-27
2023/07/13 03:40:10;;;;;;;8.65;1.80;;;;;;;17.51;79.14;101476.50;4976487;28;96509;-27
2023/07/13 03:42:35;;;;;;;5.00;0.90;;;;;;;17.47;79.01;101470.41;4976153;28;96845;-27
2023/07/13 03:45:01;;;;;;;3.00;1.27;;;;;;;17.48;79.32;101474.88;4976303;28;97442;-27
2023/07/13 03:47:26;;;;;;;7.97;1.27;;;;;;;17.46;80.14;101486.94;4976765;28;97463;-27
2023/07/13 03:49:51;;;;;;;2.83;1.20;;;;;;;17.45;80.59;101487.94;4976151;28;96833;-27
2023/07/13 03:52:17;;;;;;;3.13;1.13;;;;;;;17.46;80.51;101489.69;4976650;28;96788;-27
2023/07/13 03:54:42;;;;;;;4.60;1.38;;;;;;;17.39;81.33;101495.66;4975492;28;97919;-27
2023/07/13 03:57:08;;;;;;;4.95;1.20;;;;;;;17.40;79.94;101493.81;4976210;28;97304;-27
2023/07/13 03:59:33;;;;;;;2.75;0.95;;;;;;;17.46;80.62;101493.28;4976458;28;96460;-28
2023/07/13 04:01:59;;;;;;;4.07;0.93;;;;;;;17.48;79.70;101493.19;4976414;28;96766;-28
2023/07/13 04:04:24;;;;;;;3.90;1.50;;;;;;;17.51;80.52;101491.03;4976139;28;97908;-27
2023/07/13 04:06:52;;;;;;;6.82;1.40;;;;;;;17.54;79.92;101506.38;4976061;28;97969;-27
2023/07/13 04:09:18;;;;;;;6.82;1.40;;;;;;;17.56;80.78;101505.25;4975821;28;96655;-27
2023/07/13 04:11:44;;;;;;;7.63;1.52;;;;;;;17.44;82.48;101503.50;4976510;28;96798;-27
2023/07/13 04:14:09;;;;;;;4.45;0.80;;;;;;;17.43;81.70;101507.25;4975814;28;97979;-27
2023/07/13 04:16:34;;;;;;;4.00;1.08;;;;;;;17.54;80.01;101510.00;4975780;28;97405;-28
2023/07/13 04:19:00;;;;;;;2.88;1.35;;;;;;;17.59;79.83;101512.34;4975609;28;96521;-27
2023/07/13 04:21:28;;;;;;;4.65;1.33;;;;;;;17.53;81.42;101515.59;4976073;28;96868;-27
2023/07/13 04:23:54;;;;;;;3.58;1.10;;;;;;;17.54;81.41;101509.09;4973935;28;100766;-27
2023/07/13 04:26:20;;;;;;;3.97;0.95;;;;;;;17.58;81.29;101516.94;4974218;28;100595;-27
2023/07/13 04:28:47;;;;;;;8.35;1.58;;;;;;;17.56;80.79;101507.13;4975937;28;96655;-27
2023/07/13 04:31:13;;;;;;;4.57;1.10;;;;;;;17.59;81.35;101520.56;4974401;28;96820;-27
2023/07/13 04:33:38;;;;;;;3.65;1.48;;;;;;;17.61;81.05;101519.47;4974154;28;100825;-27
2023/07/13 04:36:04;;;;;;;7.30;1.80;;;;;;;17.64;80.63;101523.81;4975355;28;99479;-27
2023/07/13 04:38:32;;;;;;;2.67;1.05;;;;;;;17.61;81.38;101527.69;4974179;28;96679;-27
2023/07/13 04:41:00;;;;;;;4.18;1.30;;;;;;;17.60;81.54;101519.59;4975596;28;96830;-27
2023/07/13 04:43:27;;;;;;;5.13;2.03;;;;;;;17.62;81.61;101526.69;4973412;28;100784;-27
2023/07/13 04:45:53;;;;;;;5.55;1.40;;;;;;;17.69;79.80;101529.81;4973738;28;103342;-27
2023/07/13 04:48:20;;;;;;;5.53;1.60;;;;;;;17.72;80.63;101529.53;4973766;28;96594;-27
2023/07/13 04:50:46;;;;;;;6.20;1.50;;;;;;;17.69;80.67;101515.25;4974187;28;97049;-27
2023/07/13 04:53:12;;;;;;;10.00;1.65;;;;;;;17.74;80.39;101527.56;4973170;28;101652;-27
2023/07/13 04:55:38;;;;;;;8.50;1.42;;;;;;;17.77;80.47;101530.03;4975312;28;97953;-27
2023/07/13 04:58:04;;;;;;;2.22;1.10;;;;;;;17.78;80.17;101520.84;4975647;28;96540;-27
2023/07/13 05:00:30;;;;;;;4.82;1.13;;;;;;;17.74;81.15;101521.22;4976017;28;96755;-27
2023/07/13 05:02:57;;;;;;;4.22;1.63;;;;;;;17.75;80.21;101531.16;4973802;28;100798;-27
2023/07/13 05:05:24;;;;;;;7.88;1.35;;;;;;;17.77;81.21;101532.78;4973550;28;101108;-28
2023/07/13 05:07:49;;;;;;;3.78;1.25;;;;;;;17.71;82.37;101536.03;4973537;28;96592;-27
2023/07/13 05:10:15;;;;;;;8.88;1.60;;;;;;;17.69;82.07;101535.28;4975331;28;98042;-27
2023/07/13 05:12:41;;;;;;;4.15;1.20;;;;;;;17.71;81.82;101532.41;4973549;28;101319;-27
2023/07/13 05:15:07;;;;;;;5.85;1.42;;;;;;;17.76;82.59;101547.50;4975104;28;97802;-27
2023/07/13 05:17:32;;;;;;;6.95;1.40;;;;;;;17.75;81.46;101548.47;4973839;28;96652;-28
2023/07/13 05:19:58;;;;;;;2.83;1.10;;;;;;;17.74;82.25;101544.00;4975421;28;96760;-27
2023/07/13 05:22:23;;;;;;;5.85;1.38;;;;;;;17.73;81.38;101536.78;4974889;28;98480;-27
2023/07/13 05:24:49;;;;;;;9.75;1.52;;;;;;;17.77;81.89;101551.09;4975246;28;97306;-28
2023/07/13 05:27:15;;;;;;;4.25;1.75;;;;;;;17.70;83.43;101544.38;4973224;28;96747;-27
2023/07/13 05:29:40;;;;;;;6.78;1.50;;;;;;;17.74;82.16;101554.97;4973700;28;97086;-27
2023/07/13 05:32:06;;;;;;;7.43;1.60;;;;;;;17.79;82.23;101560.94;4972881;28;97954;-28
2023/07/13 05:34:32;;;;;;;7.10;1.60;;;;;;;17.79;81.72;101551.84;4973384;28;99196;-31
2023/07/13 05:36:57;;;;;;;6.10;1.95;;;;;;;17.90;81.93;101554.63;4973518;28;97072;-27
2023/07/13 05:39:23;;;;;;;5.68;1.52;;;;;;;17.95;83.46;101562.50;4974957;28;96777;-27
2023/07/13 05:41:48;;;;;;;7.60;1.35;;;;;;;18.09;80.65;101564.97;4974057;28;99643;-28
2023/07/13 05:44:14;;;;;;;10.15;1.58;;;;;;;18.17;81.23;101572.56;4973081;28;97943;-32
2023/07/13 05:46:39;;;;;;;2.95;1.05;;;;;;;18.19;81.61;101565.94;4972755;28;97096;-33
2023/07/13 05:49:05;;;;;;;8.07;1.75;;;;;;;18.20;82.11;101570.44;4974285;28;96806;-27
2023/07/13 05:51:30;;;;;;;6.47;2.28;;;;;;;18.12;82.62;101575.69;4971096;28;97330;-31
2023/07/13 05:53:55;;;;;;;7.57;2.00;;;;;;;18.06;83.63;101584.41;4971341;28;97105;-35
2023/07/13 05:56:21;;;;;;;8.20;1.75;;;;;;;18.05;84.42;101590.88;4971387;28;97070;-30
2023/07/13 05:58:48;;;;;;;8.18;1.60;;;;;;;18.06;83.13;101583.53;4971905;28;97050;-36
2023/07/13 06:01:15;;;;;;;6.47;1.65;;;;;;;18.01;83.24;101592.13;4971492;28;98482;-38
2023/07/13 06:03:40;;;;;;;7.03;1.80;;;;;;;17.93;84.83;101591.88;4969546;28;100782;-28
2023/07/13 06:06:08;;;;;;;4.05;1.50;;;;;;;17.92;84.64;101590.13;4975401;28;96851;-28
2023/07/13 06:08:33;;;;;;;3.42;1.25;;;;;;;17.87;85.17;101603.34;4974860;28;97153;-27
2023/07/13 06:11:17;;;;;;;5.40;1.77;;;;;;;17.82;86.47;101607.31;4975959;28;97912;-27
2023/07/13 06:13:43;;;;;;;9.88;1.63;;;;;;;17.75;85.64;101606.03;4976406;28;97789;-28
2023/07/13 06:16:09;;;;;;;4.03;1.25;;;;;;;17.74;86.09;101597.94;4974782;28;97227;-27
2023/07/13 06:18:36;;;;;;;4.93;1.55;;;;;;;17.64;86.85;101616.97;4974982;28;97486;-27
2023/07/13 06:21:09;;;;;;;4.32;1.60;;;;;;;17.58;87.69;101596.41;4975647;28;100758;-27
2023/07/13 06:23:34;;;;;;;3.55;1.45;;;;;;;17.69;85.97;101601.03;4977588;28;99574;-27
2023/07/13 06:26:00;;;;;;;3.58;1.58;;;;;;;17.73;85.49;101605.28;4977867;28;96503;-28
2023/07/13 06:28:25;;;;;;;4.45;1.75;;;;;;;17.77;85.92;101622.34;4977876;28;96785;-27
2023/07/13 06:30:51;;;;;;;6.88;2.17;;;;;;;17.78;85.11;101621.34;4977245;28;99334;-27
2023/07/13 06:33:16;;;;;;;5.97;1.70;;;;;;;17.77;86.00;101623.22;4977866;28;97215;-28
2023/07/13 06:35:42;;;;;;;2.53;1.27;;;;;;;17.72;85.92;101633.69;4977581;28;96907;-28
2023/07/13 06:38:07;;;;;;;5.18;1.05;;;;;;;17.74;85.63;101642.66;4978198;28;96771;-27
2023/07/13 06:40:33;;;;;;;6.40;1.92;;;;;;;17.72;85.59;101630.94;4977543;28;98362;-27
2023/07/13 06:42:58;;;;;;;8.77;2.00;;;;;;;17.71;85.87;101604.53;4977117;28;99133;-28
2023/07/13 06:45:24;;;;;;;4.28;1.40;;;;;;;17.74;85.63;101593.31;4977029;28;96666;-29
2023/07/13 06:47:49;;;;;;;3.17;1.48;;;;;;;17.69;85.00;101590.09;4976754;28;97657;-28
2023/07/13 06:50:15;;;;;;;9.10;1.65;;;;;;;17.68;84.68;101610.25;4977363;28;96857;-27
2023/07/13 06:52:40;;;;;;;5.53;2.17;;;;;;;17.67;86.13;101614.00;4975861;28;101195;-28
2023/07/13 06:55:06;;;;;;;4.88;1.75;;;;;;;17.66;85.36;101622.31;4977496;28;96698;-27
2023/07/13 06:57:31;;;;;;;3.80;1.55;;;;;;;17.69;86.12;101613.88;4977355;28;96799;-27
2023/07/13 06:59:57;;;;;;;5.00;1.80;;;;;;;17.76;85.52;101615.13;4977429;28;97340;-28
2023/07/13 07:02:22;;;;;;;4.68;1.58;;;;;;;17.78;86.16;101622.25;4977176;28;99323;-27
2023/07/13 07:04:48;;;;;;;5.80;1.92;;;;;;;17.80;85.38;101617.56;4977299;28;96738;-27
2023/07/13 07:07:13;;;;;;;8.70;1.95;;;;;;;17.82;85.18;101629.22;4977358;28;96812;-29
2023/07/13 07:09:39;;;;;;;4.40;1.75;;;;;;;17.76;86.25;101620.63;4976108;28;99239;-27
2023/07/13 07:12:05;;;;;;;4.03;1.55;;;;;;;17.75;85.77;101625.19;4976864;28;97322;-27
2023/07/13 07:14:31;;;;;;;8.23;1.85;;;;;;;17.81;86.16;101645.81;4975601;28;96584;-27
2023/07/13 07:16:58;;;;;;;3.13;1.70;;;;;;;17.77;85.29;101636.91;4976388;28;96766;-27
2023/07/13 07:19:24;;;;;;;6.47;2.08;;;;;;;17.82;85.92;101648.41;4975311;28;100832;-28
2023/07/13 07:21:49;;;;;;;5.45;1.50;;;;;;;17.74;87.29;101648.13;4977141;28;97214;-28
2023/07/13 07:24:15;;;;;;;5.53;1.70;;;;;;;17.73;86.91;101649.16;4977039;28;96470;-27
2023/07/13 07:26:41;;;;;;;6.55;2.17;;;;;;;17.70;86.86;101662.19;4977048;28;97386;-28
2023/07/13 07:29:06;;;;;;;3.10;1.08;;;;;;;17.51;86.71;101696.50;4976549;28;97752;-27
2023/07/13 07:31:32;;;;;;;4.97;0.95;;;;;;;17.40;86.47;101677.31;4976424;28;97797;-27
2023/07/13 07:33:57;;;;;;;1.92;0.88;;;;;;;17.33;86.12;101660.47;4976225;28;96547;-28
2023/07/13 07:36:22;;;;;;;2.03;0.80;;;;;;;17.32;85.39;101669.66;4976628;28;96797;-28
2023/07/13 07:38:48;;;;;;;1.65;0.77;;;;;;;17.30;85.34;101674.38;4976272;28;99114;-28
2023/07/13 07:41:14;;;;;;;1.02;0.50;;;;;;;17.28;84.98;101676.38;4976513;28;97317;-28
2023/07/13 07:43:39;;;;;;;1.40;0.82;;;;;;;17.27;85.43;101671.88;4976624;28;96660;-27
2023/07/13 07:46:05;;;;;;;1.70;0.82;;;;;;;17.29;84.30;101661.69;4976186;28;96850;-27
2023/07/13 07:48:31;;;;;;;1.85;0.98;;;;;;;17.44;85.08;101661.50;4975808;28;97959;-27
2023/07/13 07:50:56;;;;;;;2.78;0.93;;;;;;;17.66;84.83;101667.03;4975026;28;101231;-27
2023/07/13 07:53:22;;;;;;;0.95;0.57;;;;;;;18.01;84.04;101667.00;4976495;28;96587;-27
2023/07/13 07:55:48;;;;;;;0.80;0.60;;;;;;;18.28;83.06;101667.66;4976627;28;96780;-28
2023/07/13 07:58:13;;;;;;;6.13;0.98;;;;;;;18.57;82.95;101674.41;4975405;28;100086;-28
2023/07/13 08:00:38;;;;;;;1.95;1.13;;;;;;;18.98;83.06;101672.84;4975700;28;99514;-27
2023/07/13 08:03:04;;;;;;;1.88;1.20;;;;;;;19.13;82.07;101665.19;4976458;28;96674;-28
2023/07/13 08:05:29;;;;;;;4.55;1.30;;;;;;;19.33;82.12;101680.00;4975045;28;96742;-27
2023/07/13 08:07:55;;;;;;;2.47;1.23;;;;;;;19.35;80.98;101677.94;4976044;28;97985;-28
2023/07/13 08:10:20;;;;;;;3.55;1.25;;;;;;;19.22;82.36;101680.03;4975626;28;98999;-28
2023/07/13 08:12:46;;;;;;;5.90;1.40;;;;;;;19.05;82.33;101685.06;4976272;28;96741;-27
2023/07/13 08:15:16;;;;;;;2.97;1.17;;;;;;;18.82;82.27;101676.00;4976221;28;96651;-27
2023/07/13 08:17:42;;;;;;;2.20;1.10;;;;;;;18.64;82.91;101685.75;4974417;28;101382;-28
2023/07/13 08:20:09;;;;;;;3.28;1.40;;;;;;;18.51;83.83;101668.53;4975799;28;97879;-28
2023/07/13 08:22:35;;;;;;;2.38;1.17;;;;;;;18.42;83.50;101664.66;4975480;28;96481;-28
2023/07/13 08:25:01;;;;;;;4.03;0.90;;;;;;;18.33;84.03;101671.78;4974633;28;96798;-27
2023/07/13 08:27:28;;;;;;;2.83;1.20;;;;;;;18.40;85.02;101677.63;4973541;28;101542;-27
2023/07/13 08:29:54;;;;;;;4.53;1.67;;;;;;;18.34;84.90;101676.28;4973732;28;100747;-28
2023/07/13 08:32:21;;;;;;;3.13;1.27;;;;;;;18.52;85.09;101676.66;4974573;28;96658;-27
2023/07/13 08:34:47;;;;;;;3.70;1.00;;;;;;;18.99;85.04;101669.09;4975783;28;96747;-28
2023/07/13 08:37:13;;;;;;;5.40;1.23;;;;;;;19.34;83.22;101673.47;4974075;28;101530;-27
2023/07/13 08:39:38;;;;;;;1.92;0.85;;;;;;;19.79;82.17;101681.53;4974436;28;100889;-27
2023/07/13 08:42:18;;;;;;;3.05;1.40;;;;;;;20.23;81.33;101673.09;4975947;28;96467;-28
2023/07/13 08:45:02;;;;;;;3.00;1.50;;;;;;;20.30;80.29;101680.66;4974001;28;96725;-27
2023/07/13 08:47:31;;;;;;;2.45;1.02;;;;;;;20.06;80.91;101682.84;4973590;28;101098;-27
2023/07/13 08:49:57;;;;;;;3.17;1.48;;;;;;;19.77;79.74;101686.28;4973899;28;100925;-27
2023/07/13 08:52:34;;;;;;;4.45;1.10;;;;;;;19.52;80.33;101674.66;4974124;28;96610;-27
2023/07/13 08:55:16;;;;;;;3.90;1.35;;;;;;;19.57;80.68;101679.75;4974228;28;96722;-27
2023/07/13 08:57:45;;;;;;;4.45;1.20;;;;;;;19.52;80.89;101685.66;4958998;28;101034;-28
2023/07/13 09:00:14;;;;;;;3.05;1.40;;;;;;;19.63;80.76;101683.84;4975159;28;97321;-27
2023/07/13 09:02:45;;;;;;;2.25;1.13;;;;;;;19.96;79.89;101681.94;4975501;28;96624;-27
2023/07/13 09:05:25;;;;;;;2.28;1.30;;;;;;;19.92;79.49;101684.94;4974293;28;96788;-29
2023/07/13 09:08:28;;;;;;;2.08;0.98;;;;;;;19.77;79.83;101691.78;4973763;28;101051;-27
2023/07/13 09:11:13;;;;;;;4.15;1.35;;;;;;;19.56;79.33;101691.72;4975057;28;97803;-27
2023/07/13 09:13:57;;;;;;;1.65;1.00;;;;;;;19.44;79.11;101699.16;4973381;28;96735;-27
2023/07/13 09:16:23;;;;;;;4.05;1.40;;;;;;;19.41;79.76;101695.81;4975005;28;96829;-28
2023/07/13 09:18:52;;;;;;;1.88;1.13;;;;;;;19.36;80.03;101690.72;4974920;28;98198;-28
2023/07/13 09:21:26;;;;;;;3.50;1.10;;;;;;;19.35;80.45;101716.41;4973560;28;100917;-27
2023/07/13 09:23:59;;;;;;;4.68;1.38;;;;;;;19.16;80.78;101708.00;4975174;28;96717;-27
2023/07/13 09:26:29;;;;;;;2.60;1.00;;;;;;;19.16;81.18;101713.50;4975354;28;96500;-28
2023/07/13 09:29:28;;;;;;;3.42;1.98;;;;;;;19.06;81.73;101716.13;4973506;28;101223;-27
2023/07/13 09:31:58;;;;;;;3.92;0.98;;;;;;;18.97;81.75;101720.50;4975681;28;97511;-27
2023/07/13 09:34:24;;;;;;;4.50;0.90;;;;;;;18.93;81.65;101712.69;4975148;28;96582;-28
2023/07/13 09:36:49;;;;;;;1.80;1.00;;;;;;;19.08;80.73;101709.50;4973271;28;96897;-27
2023/07/13 09:39:27;;;;;;;3.85;1.48;;;;;;;19.19;81.49;101699.53;4973959;28;97869;-27
2023/07/13 09:42:21;;;;;;;3.55;1.05;;;;;;;19.47;80.95;101709.91;4974905;28;96738;-27
2023/07/13 09:45:06;;;;;;;6.05;1.38;;;;;;;19.87;79.73;101709.22;4976239;28;96747;-27
2023/07/13 09:47:37;;;;;;;5.43;1.33;;;;;;;20.26;79.82;101720.47;4975090;28;96566;-28
2023/07/13 09:50:07;;;;;;;2.38;1.08;;;;;;;20.51;77.88;101724.66;4974568;28;98359;-27
2023/07/13 09:52:42;;;;;;;3.70;1.52;;;;;;;20.54;77.26;101716.09;4973005;28;102452;-28
2023/07/13 09:55:29;;;;;;;2.40;1.30;;;;;;;20.67;76.69;101721.44;4973191;28;96737;-27
2023/07/13 09:57:54;;;;;;;3.20;1.33;;;;;;;20.59;76.83;101723.97;4973776;28;96875;-30
2023/07/13 10:00:27;;;;;;;2.65;1.15;;;;;;;20.35;77.86;101730.69;4974458;28;98033;-28
2023/07/13 10:03:21;;;;;;;2.88;1.40;;;;;;;20.34;78.44;101728.03;4972910;28;101248;-27
2023/07/13 10:05:52;;;;;;;4.20;1.38;;;;;;;20.46;77.51;101731.59;4972752;28;96892;-27
2023/07/13 10:08:27;;;;;;;2.90;1.45;;;;;;;20.40;77.97;101738.50;4973460;28;96503;-27
2023/07/13 10:11:25;;;;;;;4.88;1.80;;;;;;;20.25;77.13;101734.38;4972985;28;101137;-27
2023/07/13 10:14:23;;;;;;;2.60;1.23;;;;;;;20.00;77.69;101736.53;4977423;28;97512;-27
2023/07/13 10:16:58;;;;;;;6.28;1.40;;;;;;;19.86;78.02;101742.38;4972512;28;96984;-28
2023/07/13 10:19:26;;;;;;;3.97;1.50;;;;;;;19.75;77.99;101734.16;4973362;28;96693;-27
2023/07/13 10:22:10;;;;;;;3.70;1.70;;;;;;;19.81;78.23;101742.75;4974007;28;99470;-27
2023/07/13 10:24:38;;;;;;;3.08;1.50;;;;;;;20.08;77.92;101749.59;4974778;28;97965;-27
2023/07/13 10:27:18;;;;;;;4.13;1.30;;;;;;;20.05;77.50;101748.00;4974479;28;96555;-27
2023/07/13 10:29:54;;;;;;;1.30;0.98;;;;;;;19.99;76.57;101740.28;4973011;28;96901;-27
2023/07/13 10:32:24;;;;;;;3.58;1.45;;;;;;;20.06;77.24;101738.72;4973866;28;97493;-27
2023/07/13 10:34:52;;;;;;;4.45;1.60;;;;;;;20.66;77.43;101749.94;4972365;28;100942;-27
2023/07/13 10:37:29;;;;;;;3.95;1.52;;;;;;;21.14;74.68;101742.88;4972964;28;96607;-27
2023/07/13 10:39:56;;;;;;;7.38;1.25;;;;;;;21.55;71.93;101749.22;4957091;28;96807;-27
2023/07/13 10:42:32;;;;;;;2.28;1.30;;;;;;;21.71;68.11;101763.28;4972712;28;100993;-28
2023/07/13 10:44:57;;;;;;;2.35;1.17;;;;;;;21.99;69.35;101757.91;4972674;28;99127;-27
2023/07/13 10:47:24;;;;;;;3.28;1.17;;;;;;;22.05;66.96;101749.91;4974262;28;96699;-28
2023/07/13 10:49:54;;;;;;;3.30;1.40;;;;;;;22.10;65.56;101756.91;4972977;28;96941;-28
2023/07/13 10:52:44;;;;;;;3.67;1.10;;;;;;;22.10;65.44;101756.91;4974650;28;100895;-27
2023/07/13 10:55:38;;;;;;;2.28;1.17;;;;;;;22.36;65.21;101763.56;4977253;28;97830;-27
2023/07/13 10:58:14;;;;;;;3.30;1.40;;;;;;;22.63;64.20;101762.72;4976816;28;96615;-27
2023/07/13 11:00:56;;;;;;;2.40;0.85;;;;;;;22.76;62.78;101754.09;4976137;28;96688;-28
2023/07/13 11:03:22;;;;;;;3.13;1.08;;;;;;;22.91;61.50;101757.25;4975735;28;101220;-27
2023/07/13 11:05:51;;;;;;;2.40;1.05;;;;;;;22.99;61.33;101764.78;4975344;28;101321;-27
2023/07/13 11:08:54;;;;;;;1.50;0.90;;;;;;;23.14;61.51;101757.72;4977128;28;96440;-27
2023/07/13 11:11:26;;;;;;;7.00;1.15;;;;;;;23.27;60.72;101766.50;4979181;28;99057;-27
2023/07/13 11:13:51;;;;;;;2.17;1.08;;;;;;;23.36;60.73;101756.44;4975471;28;101152;-27
2023/07/13 11:16:19;;;;;;;1.50;0.90;;;;;;;23.65;60.71;101760.88;4977183;28;97354;-27
2023/07/13 11:19:05;;;;;;;3.47;1.25;;;;;;;23.82;60.47;101760.03;4977444;28;96393;-28
2023/07/13 11:21:30;;;;;;;2.92;1.17;;;;;;;23.90;60.32;101754.53;4975722;28;96812;-27
2023/07/13 11:24:04;;;;;;;2.40;1.13;;;;;;;24.15;60.59;101763.94;4976172;28;98059;-28
2023/07/13 11:26:46;;;;;;;5.15;1.42;;;;;;;23.98;59.35;101761.19;4976580;28;97841;-27
2023/07/13 11:29:17;;;;;;;3.45;1.25;;;;;;;23.92;59.71;101768.25;4975401;28;97090;-29